METAR AND TAF INFORMATION
METAR FOR LGKZ
ADDS - METARS form results

(1808 UTC 21 July 2019)
Data provider http://aviationweather.gov/metar/data/
 
METAR text: LGKZ 211750Z AUTO VRB02KT //// // ////// 25/10 Q1020 RE//
Conditions at: LGKZ (KOZANI (CIV/ARMY, GR) observed 1750 UTC 21 July 2019
Temperature: 25.0°C (77°F)
Dewpoint: 10.0°C (50°F) [RH = 39%]
Pressure (altimeter): 30.12 inches Hg (1020.0 mb)
Winds: variable direction winds at 2 MPH (2 knots; 1.0 m/s)
Visibility: missing
Ceiling: unknown
Clouds: missing
Weather: no significant weather observed at this time

METAR text: LGKZ 211720Z AUTO VRB03KT //// // ////// 26/10 Q1020 RE//
Conditions at: LGKZ (KOZANI (CIV/ARMY, GR) observed 1720 UTC 21 July 2019
Temperature: 26.0°C (79°F)
Dewpoint: 10.0°C (50°F) [RH = 37%]
Pressure (altimeter): 30.12 inches Hg (1020.0 mb)
Winds: variable direction winds at 3 MPH (3 knots; 1.5 m/s)
Visibility: missing
Ceiling: unknown
Clouds: missing
Weather: no significant weather observed at this time

 ΧΑΡΤΗΣ ΑΕΡΟΔΡΟΜΙΟΥ

 RUNWAY INFORMATION
Διάδρομος 14 Runway length 5978 ft Runway width 98 ft
Runway elevation 2050 ft Runway displaced threshold 594 ft Runway heading 143
Διάδρομος 32 Runway length 5978 ft Runway width 98 ft
Runway elevation 1968 ft Runway displaced threshold 0 ft Runway heading 323

 ΣΥΧΝΟΤΗΤΕΣ ΑΕΡΟΔΡΟΜΙΟΥ
Τύπος A/G Όνομα KOZANI RDO Συχνότητα 563.7 MHZ
Τύπος AFIS Όνομα KOZANI AFI Συχνότητα 118.2 MHZ

 AIRPORT NEAR NAVIGATION AIDS
Τύπος VOR-DME Όνομα Kozani Συχνότητα 109600 KHZ
Τύπος NDB Όνομα Kozani Συχνότητα 291 KHZ



Hellenic Air Force Virtual - All rights reserved 2019 - Powered by VAM